Foxworth, Mississippi
Current Conditions -  °F | °C
As of 7:35 AM on Friday 19 Dec 2014 (Local Time) from KPIB Reporting Station
Overcast Overcast  
Wind Chill:   Ceiling: 2300
Heat Index:   Visibility: 10mi
Dew Point:   Wind: 6mph
Humidity: 76%   Direction: 90°E
Pressure: 30.17"   Gusts: NA
Location:  31.24°N, 89.87°W
Report Text: KPIB 191335Z AUTO 09005KT 10SM OVC023 08/04 A3017 RMK AO1
Loading
Personal Weather Stations






























Interactive Weather Map New forecast layout! Learn more

10-Day Weather Forecast

Advertisements
Track Severe Weather on mobile